Time;durP1;ratioP1;P1;durP2;ratioP2;P2;SDS_P1;SDS_P2;PMS_P1;PMS_P2;Temp;Humidity;BMP_temperature;BMP_pressure;BME280_temperature;BME280_humidity;BME280_pressure;Samples;Min_cycle;Max_cycle;Signal;HPM_P1;HPM_P2
2022/07/01 00:00:52;;;;;;;6.87;6.20;;;21.00;78.00;;;20.10;70.44;97661.63;5031714;28;20511;-74
2022/07/01 00:03:19;;;;;;;6.90;6.00;;;20.90;79.40;;;20.11;70.54;97673.41;5033788;28;20457;-75
2022/07/01 00:05:47;;;;;;;6.53;6.03;;;20.90;79.90;;;20.02;71.19;97677.88;5023807;28;20503;-75
2022/07/01 00:08:15;;;;;;;8.43;5.93;;;20.80;80.80;;;19.99;71.32;97671.03;5021481;28;20621;-76
2022/07/01 00:10:42;;;;;;;7.83;6.90;;;20.70;81.50;;;19.85;72.14;97670.81;5009769;28;20550;-75
2022/07/01 00:13:10;;;;;;;7.43;6.83;;;20.70;82.30;;;19.82;72.37;97668.66;5014635;28;20550;-76
2022/07/01 00:15:37;;;;;;;12.03;6.80;;;20.60;83.00;;;19.77;72.62;97669.50;5013850;28;20463;-76
2022/07/01 00:18:04;;;;;;;7.90;7.10;;;20.60;83.60;;;19.78;72.79;97664.84;5017364;28;20461;-76
2022/07/01 00:20:33;;;;;;;8.43;6.80;;;20.60;83.90;;;19.72;73.04;97663.25;5016730;28;20493;-76
2022/07/01 00:23:00;;;;;;;8.13;7.03;;;20.50;84.40;;;19.75;73.13;97677.19;5010786;28;20475;-76
2022/07/01 00:25:28;;;;;;;8.57;6.83;;;20.50;84.50;;;19.74;73.22;97672.81;5014914;28;20541;-74
2022/07/01 00:27:56;;;;;;;7.20;6.60;;;20.60;84.70;;;19.85;72.76;97680.97;5017130;28;20474;-72
2022/07/01 00:30:23;;;;;;;7.10;6.50;;;20.60;84.80;;;19.70;73.03;97679.97;5015210;28;20481;-74
2022/07/01 00:32:52;;;;;;;8.70;6.40;;;20.50;84.60;;;19.60;73.63;97685.50;5011697;28;20874;-75
2022/07/01 00:35:20;;;;;;;7.83;7.27;;;20.40;85.10;;;19.73;73.35;97684.88;5035463;28;20463;-76
2022/07/01 00:37:47;;;;;;;6.73;6.23;;;20.50;85.40;;;19.73;72.95;97679.41;5013036;28;20503;-75
2022/07/01 00:40:15;;;;;;;6.33;5.83;;;20.50;85.00;;;19.74;72.90;97681.03;5016527;28;20550;-75
2022/07/01 00:42:43;;;;;;;9.20;6.90;;;20.50;85.10;;;19.75;72.69;97682.69;5017892;28;20454;-76
2022/07/01 00:45:12;;;;;;;6.77;6.17;;;20.50;85.00;;;19.62;72.86;97684.13;5015074;28;20519;-74
2022/07/01 00:47:41;;;;;;;6.00;5.50;;;20.40;85.00;;;19.57;72.72;97702.50;5016795;27;21056;-76
2022/07/01 00:50:11;;;;;;;6.53;5.93;;;20.40;84.90;;;19.49;73.12;97706.66;5017850;27;20474;-76
2022/07/01 00:52:40;;;;;;;6.90;6.20;;;20.30;85.30;;;19.40;73.80;97725.59;5014212;27;20486;-76
2022/07/01 00:55:11;;;;;;;7.67;6.47;;;20.20;85.50;;;19.33;74.01;97741.50;5016961;27;20454;-75
2022/07/01 00:57:43;;;;;;;6.33;5.73;;;20.20;85.90;;;19.40;73.85;97753.00;5022323;27;20997;-73
2022/07/01 01:00:14;;;;;;;6.43;5.83;;;20.20;86.00;;;19.41;73.64;97760.13;5023348;27;20524;-76
2022/07/01 01:02:42;;;;;;;6.30;5.60;;;20.20;85.90;;;19.49;73.13;97769.69;5023963;28;20474;-75
2022/07/01 01:05:10;;;;;;;8.33;6.00;;;20.30;85.40;;;19.28;73.66;97757.97;5017263;27;20462;-76
2022/07/01 01:07:38;;;;;;;6.77;6.17;;;20.10;85.30;;;19.01;74.20;97761.88;5014907;27;20550;-74
2022/07/01 01:10:06;;;;;;;6.13;5.50;;;19.90;85.70;;;19.07;73.49;97749.81;5012300;28;20465;-74
2022/07/01 01:12:34;;;;;;;7.40;5.70;;;19.90;85.30;;;18.94;73.29;97762.97;5017436;27;20461;-73
2022/07/01 01:15:04;;;;;;;8.17;5.13;;;19.80;85.00;;;18.64;72.92;97728.22;5017640;27;20466;-76
2022/07/01 01:17:31;;;;;;;5.50;5.00;;;19.80;84.80;;;18.34;74.26;97713.47;5015502;28;21240;-78
2022/07/01 01:19:59;;;;;;;6.13;5.17;;;19.50;85.10;;;18.53;74.82;97773.94;5019898;27;20477;-73
2022/07/01 01:22:27;;;;;;;5.87;5.30;;;19.40;86.00;;;18.66;73.86;97758.91;5016332;27;20961;-77
2022/07/01 01:24:54;;;;;;;5.47;5.07;;;19.40;85.80;;;18.57;73.64;97768.75;5025635;28;20859;-77
2022/07/01 01:27:22;;;;;;;5.07;4.57;;;19.50;85.10;;;18.55;73.65;97761.63;5011152;27;21257;-75
2022/07/01 01:29:49;;;;;;;7.23;4.40;;;19.40;85.20;;;18.22;74.35;97744.66;5033887;28;20454;-74
2022/07/01 01:32:16;;;;;;;5.93;3.67;;;19.20;85.10;;;18.12;74.61;97731.81;5033475;27;20452;-76
2022/07/01 01:34:44;;;;;;;5.00;4.50;;;19.00;85.60;;;18.16;74.43;97742.19;5031327;28;20468;-75
2022/07/01 01:37:11;;;;;;;4.30;4.00;;;19.00;85.80;;;18.11;74.84;97752.03;5021576;27;20450;-75
2022/07/01 01:39:39;;;;;;;4.80;3.90;;;19.00;86.00;;;17.95;75.30;97747.59;5029634;28;20466;-76
2022/07/01 01:42:08;;;;;;;4.30;4.00;;;18.80;86.50;;;17.77;75.60;97730.63;5018273;27;20454;-75
2022/07/01 01:44:35;;;;;;;4.80;4.30;;;18.70;86.80;;;17.70;76.22;97728.13;5032479;28;20467;-75
2022/07/01 01:47:03;;;;;;;4.40;4.10;;;18.60;87.10;;;17.61;76.75;97737.13;5016985;28;20483;-75
2022/07/01 01:49:31;;;;;;;4.10;3.80;;;18.50;87.80;;;17.69;76.42;97753.81;5018485;28;20473;-76
2022/07/01 01:52:00;;;;;;;4.40;4.00;;;18.50;88.00;;;17.03;77.04;97670.56;5015113;28;20463;-73
2022/07/01 01:54:27;;;;;;;3.83;3.40;;;18.50;88.30;;;17.58;76.92;97748.59;5027298;28;20460;-75
2022/07/01 01:56:56;;;;;;;4.10;3.80;;;18.50;88.60;;;17.49;77.43;97765.47;5015174;27;20462;-77
2022/07/01 01:59:24;;;;;;;6.67;4.30;;;18.40;88.70;;;17.43;77.13;97772.03;5027577;28;20486;-74
2022/07/01 02:01:51;;;;;;;3.83;3.63;;;18.30;88.50;;;17.32;77.23;97789.44;5015994;27;20462;-74
2022/07/01 02:04:18;;;;;;;5.00;4.47;;;18.20;88.60;;;17.35;77.31;97799.81;5017250;27;20471;-74
2022/07/01 02:06:46;;;;;;;5.80;3.90;;;18.20;88.70;;;17.31;77.53;97802.28;5020729;27;20548;-74
2022/07/01 02:09:13;;;;;;;3.47;3.27;;;18.20;88.80;;;17.32;77.50;97803.94;5034393;28;20431;-73
2022/07/01 02:11:41;;;;;;;5.03;3.70;;;18.20;88.80;;;16.97;77.55;97762.47;5019069;27;20477;-73
2022/07/01 02:14:09;;;;;;;5.30;4.03;;;18.10;89.00;;;17.22;77.63;97818.34;5029354;27;20474;-73
2022/07/01 02:16:37;;;;;;;3.80;3.50;;;18.10;89.20;;;17.43;77.00;97829.38;5017154;28;20580;-74
2022/07/01 02:19:04;;;;;;;3.97;3.67;;;18.20;89.20;;;17.30;76.53;97783.44;5017662;27;20480;-75
2022/07/01 02:21:32;;;;;;;7.10;3.27;;;18.30;88.40;;;17.49;76.63;97831.03;5017449;28;20458;-74
2022/07/01 02:23:59;;;;;;;4.17;3.83;;;18.30;88.20;;;17.25;77.25;97834.19;5023341;28;20477;-72
2022/07/01 02:26:26;;;;;;;4.20;3.90;;;18.20;88.50;;;17.27;76.95;97837.47;5046450;28;20465;-75
2022/07/01 02:28:53;;;;;;;4.53;3.77;;;18.20;88.30;;;17.08;77.57;97837.06;5032316;28;20478;-75
2022/07/01 02:31:22;;;;;;;5.87;3.73;;;18.00;88.50;;;16.96;77.90;97831.78;5018222;27;20469;-72
2022/07/01 02:33:49;;;;;;;3.87;3.57;;;17.90;89.00;;;16.82;78.46;97834.13;5030709;28;20651;-75
2022/07/01 02:36:16;;;;;;;5.10;3.30;;;17.80;90.00;;;16.81;78.54;97809.84;5017634;28;20462;-73
2022/07/01 02:38:44;;;;;;;4.00;3.70;;;17.80;89.80;;;16.74;78.62;97804.59;5013237;28;20465;-73
2022/07/01 02:41:11;;;;;;;4.33;3.70;;;17.70;90.00;;;16.64;79.25;97801.78;5017908;27;20539;-74
2022/07/01 02:43:38;;;;;;;4.00;3.70;;;17.60;90.20;;;16.62;79.15;97809.41;5015976;28;20469;-71
2022/07/01 02:46:06;;;;;;;4.60;4.20;;;17.60;90.50;;;16.44;79.20;97776.00;5030456;27;20566;-75
2022/07/01 02:48:34;;;;;;;3.00;2.80;;;17.60;90.50;;;16.61;79.28;97796.84;5015844;28;20545;-75
2022/07/01 02:51:01;;;;;;;4.17;3.77;;;17.50;90.50;;;16.51;79.57;97797.59;5035784;27;20925;-77
2022/07/01 02:53:29;;;;;;;3.87;3.57;;;17.40;90.80;;;16.48;80.34;97814.47;5019069;27;20593;-75
2022/07/01 02:55:57;;;;;;;4.93;4.53;;;17.40;91.00;;;16.37;80.52;97819.84;5033046;28;20449;-76
2022/07/01 02:58:25;;;;;;;4.47;4.07;;;17.30;91.30;;;16.29;81.32;97817.56;5015743;28;20833;-74
2022/07/01 03:00:53;;;;;;;4.87;4.13;;;17.20;91.50;;;16.18;82.14;97815.84;5014737;28;20463;-74
2022/07/01 03:03:21;;;;;;;4.60;4.20;;;17.20;92.00;;;16.17;83.48;97814.19;5016951;27;20478;-75
2022/07/01 03:05:50;;;;;;;4.13;3.83;;;17.10;93.10;;;16.26;83.27;97812.63;5014200;28;20547;-71
2022/07/01 03:08:17;;;;;;;4.00;3.70;;;17.20;93.20;;;16.16;82.84;97826.19;5015409;27;20484;-70
2022/07/01 03:10:44;;;;;;;4.63;4.17;;;17.10;92.80;;;16.16;82.60;97823.44;5015331;27;20451;-73
2022/07/01 03:13:12;;;;;;;4.30;4.00;;;17.10;92.70;;;16.31;82.04;97825.50;5016530;27;22932;-77
2022/07/01 03:15:39;;;;;;;4.73;4.20;;;17.20;92.40;;;16.39;81.72;97822.31;5017760;28;20462;-77
2022/07/01 03:18:06;;;;;;;3.93;3.63;;;17.30;92.20;;;16.22;80.96;97789.72;5014801;28;20465;-75
2022/07/01 03:20:34;;;;;;;4.37;4.07;;;17.30;91.90;;;16.28;81.38;97808.56;5034237;28;20888;-75
2022/07/01 03:23:02;;;;;;;4.30;4.00;;;17.20;92.10;;;16.33;81.47;97821.44;5017515;28;20453;-74
2022/07/01 03:25:30;;;;;;;5.33;4.10;;;17.20;92.00;;;16.49;80.71;97825.13;5016894;28;20498;-75
2022/07/01 03:27:57;;;;;;;4.10;3.80;;;17.20;91.80;;;16.51;80.22;97813.97;5016470;28;20486;-74
2022/07/01 03:30:25;;;;;;;4.40;4.10;;;17.40;91.40;;;16.38;80.88;97805.13;5014428;28;20553;-76
2022/07/01 03:32:52;;;;;;;4.10;3.80;;;17.30;91.60;;;16.19;81.95;97806.56;5027100;28;20462;-75
2022/07/01 03:35:40;;;;;;;4.30;4.00;;;17.20;92.00;;;16.25;82.28;97809.09;5014692;28;20526;-73
2022/07/01 03:38:09;;;;;;;4.00;3.67;;;17.10;92.60;;;16.28;82.58;97815.91;5026102;28;20522;-73
2022/07/01 03:40:36;;;;;;;4.50;4.10;;;17.20;92.80;;;16.46;81.71;97822.09;5016377;28;20450;-75
2022/07/01 03:43:04;;;;;;;4.00;3.63;;;17.20;92.50;;;16.46;81.03;97824.84;5015993;28;20482;-76
2022/07/01 03:45:32;;;;;;;3.67;3.33;;;17.30;92.00;;;16.43;81.04;97829.69;5017325;28;20546;-74
2022/07/01 03:48:00;;;;;;;3.70;3.50;;;17.30;92.10;;;16.39;81.33;97822.31;5016251;28;20481;-75
2022/07/01 03:50:27;;;;;;;4.10;3.80;;;17.20;92.00;;;16.25;81.39;97821.88;5015995;28;20466;-74
2022/07/01 03:55:42;;;;;;;5.00;3.83;;;17.30;92.00;;;16.55;80.74;97855.97;5032141;27;20450;-75
2022/07/01 03:58:09;;;;;;;3.80;3.50;;;17.40;91.80;;;16.35;81.11;97843.81;5014234;28;20985;-76
2022/07/01 04:00:38;;;;;;;3.73;3.43;;;17.50;92.00;;;16.63;80.11;97887.41;5019328;28;20790;-77
2022/07/01 04:03:07;;;;;;;3.20;2.90;;;17.50;91.20;;;16.69;80.08;97889.13;5016615;28;20516;-76
2022/07/01 04:05:36;;;;;;;3.40;3.20;;;17.60;91.40;;;16.74;80.35;97896.50;5015722;28;20466;-76
2022/07/01 04:08:04;;;;;;;3.53;3.33;;;17.60;91.70;;;16.66;80.36;97898.63;5018011;28;20558;-74
2022/07/01 04:10:33;;;;;;;3.90;3.33;;;17.60;91.40;;;16.67;80.46;97900.28;5017105;28;20463;-71
2022/07/01 04:13:03;;;;;;;3.93;3.73;;;17.60;91.60;;;16.68;80.20;97901.94;5016595;28;20546;-74
2022/07/01 04:15:31;;;;;;;4.30;3.37;;;17.60;91.50;;;16.60;81.26;97899.66;5021608;28;20506;-76
2022/07/01 04:17:59;;;;;;;3.57;3.27;;;17.50;91.90;;;16.59;82.91;97898.00;5030598;28;20980;-75
2022/07/01 04:20:26;;;;;;;4.27;3.87;;;17.50;93.00;;;16.69;82.74;97906.31;5021886;28;21055;-75
2022/07/01 04:22:52;;;;;;;3.73;3.53;;;17.50;93.30;;;16.52;83.86;97897.41;5022001;27;20450;-75
2022/07/01 04:25:20;;;;;;;3.80;3.50;;;17.50;93.90;;;16.46;84.65;97906.63;5013827;28;20462;-73
2022/07/01 04:27:47;;;;;;;4.20;3.80;;;17.40;94.50;;;15.91;86.14;97860.22;5019740;28;20573;-72
2022/07/01 04:30:16;;;;;;;5.00;4.50;;;17.20;95.30;;;15.76;89.26;97897.06;5017567;28;20462;-71
2022/07/01 04:32:43;;;;;;;5.13;4.73;;;16.80;97.40;;;15.65;91.92;97895.25;5021345;28;20548;-72
2022/07/01 04:35:13;;;;;;;4.80;4.40;;;16.60;99.90;;;15.46;93.56;97898.28;5015298;28;20454;-71
2022/07/01 04:37:41;;;;;;;7.97;5.47;;;16.40;99.90;;;15.38;95.59;97904.13;5012950;27;20892;-77
2022/07/01 04:40:09;;;;;;;6.70;6.20;;;16.30;99.90;;;15.34;97.64;97897.56;5020553;27;20462;-80
2022/07/01 04:42:35;;;;;;;6.30;5.70;;;16.30;99.90;;;15.41;97.04;97884.59;5038676;27;21480;-80
2022/07/01 04:45:03;;;;;;;5.60;5.20;;;16.30;99.90;;;15.30;94.63;97849.06;5033659;27;20472;-73
2022/07/01 04:47:32;;;;;;;5.57;5.10;;;16.20;99.90;;;15.14;96.52;97841.75;5037268;28;20452;-76
2022/07/01 04:50:01;;;;;;;6.27;5.77;;;16.20;99.90;;;15.17;98.47;97848.59;5050407;28;20457;-78
2022/07/01 04:52:29;;;;;;;6.90;6.20;;;16.10;99.90;;;15.00;99.44;97863.84;5025589;27;20581;-74
2022/07/01 04:54:56;;;;;;;6.80;6.30;;;16.00;99.90;;;14.95;100.00;97871.94;5025281;28;20558;-79
2022/07/01 04:57:24;;;;;;;7.17;6.67;;;16.00;99.90;;;15.04;100.00;97883.25;5023819;27;20519;-76
2022/07/01 04:59:51;;;;;;;7.70;7.00;;;16.00;99.90;;;14.99;100.00;97889.41;5024851;28;20462;-81
2022/07/01 05:02:18;;;;;;;8.07;7.37;;;16.00;99.90;;;14.95;100.00;97888.28;5020939;27;20963;-84
2022/07/01 05:04:47;;;;;;;7.90;7.20;;;15.90;99.90;;;14.91;100.00;97889.81;5028265;27;20468;-83
2022/07/01 05:10:11;;;;;;;7.80;7.27;;;15.90;99.90;;;14.84;100.00;97906.28;5076439;27;20627;-77
2022/07/01 05:12:39;;;;;;;7.10;6.60;;;15.90;99.90;;;14.95;100.00;97911.91;5082798;28;20451;-80
2022/07/01 05:15:08;;;;;;;9.40;8.63;;;15.90;99.90;;;15.14;100.00;97929.63;5076969;28;20467;-76
2022/07/01 05:23:05;;;;;;;7.87;7.20;;;16.10;99.90;;;15.07;100.00;97931.72;5068255;28;20480;-80
2022/07/01 05:25:34;;;;;;;7.00;6.43;;;16.00;99.90;;;15.07;100.00;97928.16;5070146;28;21741;-77
2022/07/01 05:28:01;;;;;;;6.77;6.27;;;16.00;99.90;;;14.95;100.00;97934.50;5070650;28;20447;-84
2022/07/01 05:30:28;;;;;;;7.40;6.80;;;16.00;99.90;;;14.87;100.00;97940.34;5070095;28;20473;-81
2022/07/01 05:32:55;;;;;;;7.47;6.90;;;15.90;99.90;;;14.98;100.00;97941.34;5074054;28;20540;-82
2022/07/01 05:35:23;;;;;;;6.50;6.03;;;15.90;99.90;;;14.86;99.99;97952.28;5069706;28;20987;-78
2022/07/01 05:37:50;;;;;;;6.47;5.97;;;15.90;99.90;;;14.80;99.00;97954.09;5069246;28;20514;-84
2022/07/01 05:40:17;;;;;;;8.70;5.50;;;15.80;99.90;;;14.81;99.59;97971.25;5067967;28;20467;-82
2022/07/01 05:42:45;;;;;;;5.63;5.13;;;15.80;99.90;;;14.89;99.52;97981.72;5066817;28;20450;-83
2022/07/01 05:45:13;;;;;;;4.40;4.10;;;15.80;99.90;;;14.78;98.39;97977.16;5065697;28;20554;-81
2022/07/01 05:47:40;;;;;;;5.10;4.80;;;15.80;99.90;;;14.78;99.44;97996.19;5066148;28;20485;-82
2022/07/01 05:50:09;;;;;;;4.53;4.23;;;15.70;99.90;;;14.88;98.74;97993.66;5065681;28;20492;-80
2022/07/01 05:52:36;;;;;;;3.73;3.53;;;15.80;99.90;;;14.80;97.09;97999.53;5068882;28;20455;-80
2022/07/01 05:55:05;;;;;;;3.80;3.50;;;15.80;99.90;;;14.81;97.77;97993.81;5068932;28;20458;-79
2022/07/01 05:57:32;;;;;;;3.30;2.80;;;15.70;99.90;;;14.67;97.07;97989.72;5069409;28;20455;-80
2022/07/01 06:00:00;;;;;;;3.73;3.53;;;15.70;99.90;;;14.65;97.97;98003.56;5065958;28;20471;-77
2022/07/01 06:02:28;;;;;;;3.40;3.20;;;15.60;99.90;;;14.54;98.01;98023.47;5080616;28;20510;-76
2022/07/01 06:04:55;;;;;;;4.93;4.60;;;15.60;99.90;;;14.73;99.71;98003.19;5063126;28;20458;-77
2022/07/01 06:07:23;;;;;;;4.63;4.33;;;15.60;99.90;;;14.67;97.83;98011.47;5064149;28;20459;-81
2022/07/01 06:09:50;;;;;;;4.47;4.07;;;15.70;99.90;;;14.66;97.29;98009.81;5071437;28;20476;-82
2022/07/01 06:12:17;;;;;;;4.67;4.27;;;15.70;99.90;;;14.61;97.50;98007.81;5067098;28;20473;-83
2022/07/01 06:14:45;;;;;;;4.07;3.77;;;15.60;99.90;;;14.58;96.94;98014.59;5065930;28;20461;-78
2022/07/01 06:17:14;;;;;;;4.30;4.00;;;15.60;99.90;;;14.56;98.01;98005.84;5066906;28;20462;-80
2022/07/01 06:19:41;;;;;;;4.40;4.10;;;15.60;99.90;;;14.61;97.02;98018.69;5062233;28;20586;-80
2022/07/01 06:22:09;;;;;;;3.83;3.50;;;15.60;99.90;;;14.49;98.78;98015.22;5060926;28;20458;-78
2022/07/01 06:24:36;;;;;;;4.27;3.93;;;15.50;99.90;;;14.51;97.15;98007.63;5053071;28;21032;-80
2022/07/01 06:27:05;;;;;;;4.40;4.10;;;15.50;99.90;;;14.53;98.08;98014.47;5053405;28;21291;-84
2022/07/01 06:29:32;;;;;;;5.43;4.93;;;15.50;99.90;;;14.58;98.61;98011.03;5057698;28;20981;-79
2022/07/01 06:32:00;;;;;;;3.73;3.43;;;15.50;99.90;;;14.65;97.57;97998.13;5061416;28;20457;-86
2022/07/01 06:34:28;;;;;;;3.70;3.40;;;15.60;99.90;;;14.79;95.30;98008.75;5065557;28;20488;-81
2022/07/01 06:36:59;;;;;;;3.30;3.10;;;15.70;99.90;;;14.86;94.46;97998.53;5055855;28;20461;-83
2022/07/01 06:39:27;;;;;;;3.10;2.90;;;16.00;99.90;;;14.78;94.08;97990.75;5053588;28;20587;-81
2022/07/01 06:41:54;;;;;;;3.50;3.30;;;15.90;99.90;;;15.15;93.80;98017.53;5049163;28;20511;-81
2022/07/01 06:44:22;;;;;;;2.60;2.40;;;16.10;99.90;;;15.04;90.94;98021.16;5063717;28;20609;-85
2022/07/01 06:46:49;;;;;;;3.03;2.83;;;16.10;98.00;;;14.96;91.78;98020.50;5059383;28;20467;-78
2022/07/01 06:49:16;;;;;;;3.40;3.10;;;16.00;99.80;;;14.93;92.03;98026.41;5065775;28;21346;-84
2022/07/01 06:51:45;;;;;;;2.90;2.70;;;15.90;99.90;;;14.71;92.96;98018.94;5052756;28;20532;-83
2022/07/01 06:54:12;;;;;;;2.83;2.63;;;15.80;99.90;;;14.91;93.15;98017.66;5057039;28;20458;-82
2022/07/01 06:56:39;;;;;;;2.90;2.70;;;16.00;99.90;;;14.76;91.80;98030.97;5054749;28;20675;-80
2022/07/01 06:59:07;;;;;;;2.50;2.30;;;15.80;99.80;;;14.97;92.64;98032.19;5052465;28;20476;-86
2022/07/01 07:01:34;;;;;;;2.23;2.13;;;15.90;99.90;;;15.00;91.19;98037.13;5050584;28;20464;-81
2022/07/01 07:04:02;;;;;;;1.77;1.67;;;16.00;99.50;;;15.00;90.76;98053.44;5054483;28;20578;-83
2022/07/01 07:06:30;;;;;;;2.17;2.07;;;16.00;98.30;;;14.99;91.80;98055.38;5063110;28;20463;-77
2022/07/01 07:08:58;;;;;;;2.10;1.90;;;15.90;99.90;;;14.95;90.11;98051.50;5076175;28;20462;-72
2022/07/01 07:11:27;;;;;;;1.90;1.80;;;16.00;97.70;;;15.07;90.23;98053.31;5076271;28;20454;-73
2022/07/01 07:13:54;;;;;;;1.57;1.47;;;16.00;98.10;;;14.96;89.59;98061.28;5077981;28;20473;-82
2022/07/01 07:16:21;;;;;;;2.43;2.27;;;16.00;96.60;;;14.95;90.04;98056.09;5065094;28;20449;-76
2022/07/01 07:18:48;;;;;;;2.20;2.10;;;15.90;97.80;;;15.10;89.86;98055.56;5061623;28;20493;-80
2022/07/01 07:21:15;;;;;;;2.83;2.67;;;16.00;97.90;;;15.38;88.56;98062.00;5060409;28;20480;-84
2022/07/01 07:23:43;;;;;;;2.50;2.30;;;16.20;96.80;;;15.11;86.33;98016.41;5056783;28;20459;-84
2022/07/01 07:26:12;;;;;;;3.43;3.23;;;16.40;94.50;;;15.27;86.57;98075.47;5059714;28;20456;-79
2022/07/01 07:28:40;;;;;;;2.70;2.60;;;16.20;94.50;;;15.40;87.79;98081.69;5055036;28;20888;-83
2022/07/01 07:31:07;;;;;;;2.90;2.70;;;16.30;95.60;;;15.46;86.40;98064.34;5056651;28;20465;-82
2022/07/01 07:33:34;;;;;;;3.20;3.00;;;16.40;95.10;;;15.40;86.51;98079.75;5053288;28;20460;-84
2022/07/01 07:36:01;;;;;;;3.90;3.30;;;16.40;94.60;;;15.37;86.79;98087.59;5053773;28;20471;-83
2022/07/01 07:38:29;;;;;;;3.40;3.20;;;16.40;95.00;;;15.32;87.93;98092.94;5051498;28;21477;-86
2022/07/01 07:40:56;;;;;;;3.23;3.03;;;16.30;95.60;;;15.34;88.65;98085.34;5033501;28;20551;-86
2022/07/01 07:43:25;;;;;;;3.53;3.33;;;16.30;96.80;;;15.35;87.16;98092.47;5070096;28;20464;-85
2022/07/01 07:45:52;;;;;;;3.80;3.47;;;16.30;95.00;;;15.23;87.47;98089.81;5065607;28;20461;-73
2022/07/01 07:48:20;;;;;;;4.53;4.13;;;16.30;95.00;;;15.15;87.57;98085.56;5053676;28;20965;-73
2022/07/01 07:50:48;;;;;;;4.53;4.13;;;16.20;95.20;;;14.97;86.65;98089.31;5060452;28;20462;-72
2022/07/01 07:53:15;;;;;;;3.90;3.60;;;16.00;94.20;;;14.73;87.65;98098.38;5054949;28;21151;-73
2022/07/01 07:55:42;;;;;;;4.40;4.10;;;15.80;95.10;;;14.64;87.41;98088.09;5049443;28;20515;-73
2022/07/01 07:58:10;;;;;;;4.43;4.13;;;15.70;94.90;;;14.50;88.41;98090.25;5047284;28;20465;-71
2022/07/01 08:00:38;;;;;;;3.83;3.53;;;15.50;96.00;;;14.52;88.06;98093.56;5051306;28;20446;-72
2022/07/01 08:03:06;;;;;;;4.00;3.70;;;15.50;95.70;;;14.42;88.39;98086.81;5049162;28;20462;-74
2022/07/01 08:05:33;;;;;;;6.23;4.60;;;15.50;95.90;;;14.07;88.82;98029.81;5052091;28;20478;-72
2022/07/01 08:08:00;;;;;;;4.30;3.90;;;15.40;96.90;;;14.39;88.67;98098.19;5051654;28;20589;-73
2022/07/01 08:10:28;;;;;;;5.10;4.70;;;15.40;96.80;;;14.39;88.59;98098.19;5050252;28;20479;-73
2022/07/01 08:12:56;;;;;;;4.97;4.53;;;15.40;96.10;;;14.22;88.81;98102.69;5050509;28;20461;-73
2022/07/01 08:15:24;;;;;;;5.73;4.47;;;15.30;96.60;;;14.44;89.42;98114.59;5052154;28;20463;-73
2022/07/01 08:17:53;;;;;;;4.67;4.30;;;15.40;97.90;;;14.58;87.85;98112.47;5060664;28;20544;-72
2022/07/01 08:20:20;;;;;;;5.10;4.70;;;15.50;95.60;;;14.57;87.39;98120.84;5072279;28;20961;-74
2022/07/01 08:22:47;;;;;;;4.53;4.13;;;15.60;95.10;;;14.80;88.46;98113.75;5049832;28;20474;-74
2022/07/01 08:25:15;;;;;;;5.10;4.70;;;15.70;97.10;;;15.12;85.91;98129.59;5047549;28;21311;-72
2022/07/01 08:27:43;;;;;;;3.87;3.47;;;16.00;94.80;;;14.94;84.64;98092.53;5047128;28;20466;-73
2022/07/01 08:30:12;;;;;;;5.27;4.60;;;16.10;93.20;;;14.84;86.08;98125.78;5045401;28;20997;-74
2022/07/01 08:32:39;;;;;;;3.87;3.40;;;16.00;93.80;;;14.86;85.23;98129.09;5062825;28;20928;-72
2022/07/01 08:35:09;;;;;;;3.80;3.50;;;15.90;93.30;;;14.63;87.88;98141.63;5066443;28;20468;-73
2022/07/01 08:37:36;;;;;;;3.73;3.43;;;15.70;95.40;;;14.63;87.73;98138.91;5046605;28;20450;-73
2022/07/01 08:40:05;;;;;;;4.70;4.23;;;15.70;95.60;;;14.56;87.41;98136.34;5054845;28;20477;-73
2022/07/01 08:42:32;;;;;;;4.20;3.80;;;15.60;94.80;;;14.76;87.46;98147.91;5053387;28;20481;-74
2022/07/01 08:44:59;;;;;;;5.50;3.97;;;15.70;96.10;;;14.75;87.14;98149.81;5056856;28;20596;-74
2022/07/01 08:47:27;;;;;;;7.13;3.53;;;15.70;95.20;;;14.76;87.00;98154.19;5051699;28;20505;-75
2022/07/01 08:49:54;;;;;;;4.10;3.70;;;15.80;94.90;;;14.86;86.72;98153.56;5050762;28;20507;-76
2022/07/01 08:52:23;;;;;;;4.17;3.30;;;15.80;95.40;;;14.97;85.53;98160.88;5056122;28;20459;-74
2022/07/01 08:54:50;;;;;;;4.50;4.10;;;15.90;93.70;;;15.00;86.55;98176.72;5059457;28;20972;-82
2022/07/01 08:57:22;;;;;;;4.00;3.70;;;16.00;94.70;;;15.07;86.55;98173.88;5057165;28;21074;-84
2022/07/01 09:00:03;;;;;;;5.07;3.93;;;16.00;94.70;;;14.72;86.09;98172.06;5057492;28;20490;-81
2022/07/01 09:02:55;;;;;;;3.73;3.53;;;15.80;93.70;;;14.77;87.58;98174.03;5051517;28;20460;-82
2022/07/01 09:05:24;;;;;;;3.90;3.60;;;15.80;95.60;;;14.69;88.01;98173.31;5048202;28;20561;-78
2022/07/01 09:08:00;;;;;;;5.17;4.63;;;15.70;95.80;;;14.64;88.22;98181.38;5049266;28;21337;-83
2022/07/01 09:10:30;;;;;;;10.10;3.77;;;15.70;96.40;;;14.24;88.14;98133.16;5055448;28;20477;-83
2022/07/01 09:12:58;;;;;;;5.00;3.83;;;15.60;95.60;;;14.45;88.80;98183.38;5049970;28;20930;-86
2022/07/01 09:15:29;;;;;;;6.50;3.90;;;15.50;96.10;;;14.62;88.20;98183.47;5045497;28;20456;-78
2022/07/01 09:18:04;;;;;;;3.30;3.00;;;15.60;96.20;;;14.70;88.23;98196.72;5048181;28;20467;-85
2022/07/01 09:20:35;;;;;;;5.67;3.40;;;15.70;96.20;;;14.75;88.05;98203.38;5050047;28;20515;-83
2022/07/01 09:23:10;;;;;;;3.70;3.40;;;15.70;96.20;;;14.59;88.72;98208.44;5071075;28;21301;-82
2022/07/01 09:25:43;;;;;;;4.83;3.13;;;15.70;96.30;;;14.54;89.13;98202.88;5053281;28;20459;-81
2022/07/01 09:28:13;;;;;;;4.30;3.90;;;15.60;96.70;;;14.66;89.65;98206.44;5052481;28;20463;-85
2022/07/01 09:30:44;;;;;;;2.97;2.77;;;15.60;97.70;;;14.55;87.92;98208.06;5056333;28;20868;-76
2022/07/01 09:33:14;;;;;;;3.90;3.50;;;15.60;95.40;;;14.62;88.54;98207.94;5052656;28;20454;-76
2022/07/01 09:35:44;;;;;;;3.57;3.27;;;15.70;96.00;;;14.56;88.43;98217.06;5055601;28;20995;-76
2022/07/01 09:38:16;;;;;;;3.90;3.10;;;15.60;95.80;;;14.62;89.82;98216.09;5051769;28;20487;-83
2022/07/01 09:40:51;;;;;;;4.37;3.97;;;15.70;97.30;;;14.69;89.71;98210.53;5069630;28;20451;-75
2022/07/01 09:43:22;;;;;;;5.60;4.20;;;15.70;97.30;;;14.52;88.83;98211.25;5048247;28;21185;-83
2022/07/01 09:45:58;;;;;;;4.10;3.80;;;15.60;95.80;;;14.64;89.80;98203.13;5069676;28;20515;-80
2022/07/01 09:48:42;;;;;;;3.27;3.07;;;15.70;97.10;;;14.58;88.16;98217.66;5057104;28;20466;-80
2022/07/01 09:51:12;;;;;;;3.60;3.30;;;15.70;95.20;;;14.63;90.34;98215.03;5056633;28;20490;-81
2022/07/01 09:53:40;;;;;;;3.40;3.10;;;15.60;98.20;;;14.92;88.83;98212.44;5048381;28;20544;-78
2022/07/01 09:56:08;;;;;;;4.47;3.83;;;15.80;96.70;;;15.10;87.60;98210.66;5056938;28;21077;-79
2022/07/01 09:58:38;;;;;;;3.60;3.30;;;16.00;95.70;;;15.11;87.31;98215.84;5053936;28;20491;-86
2022/07/01 10:01:07;;;;;;;3.53;3.27;;;16.10;95.30;;;14.98;86.50;98203.34;5070590;28;20637;-85
2022/07/01 10:03:38;;;;;;;3.70;3.40;;;16.00;94.40;;;14.64;86.16;98124.28;5058823;28;20835;-85
2022/07/01 10:06:42;;;;;;;3.50;3.20;;;16.10;94.50;;;15.21;83.88;98152.63;5055111;28;20570;-85
2022/07/01 10:12:39;;;;;;;3.33;3.03;;;16.80;91.40;;;15.37;80.10;98156.47;5056984;28;20541;-84
2022/07/01 10:15:10;;;;;;;3.37;3.00;;;16.60;90.00;;;15.52;81.03;98147.75;5058918;28;20464;-84
2022/07/01 10:17:42;;;;;;;2.93;2.73;;;16.60;91.00;;;15.91;78.50;98187.13;5062520;28;20570;-84
2022/07/01 10:20:13;;;;;;;2.67;2.50;;;16.90;88.80;;;15.61;79.59;98202.66;5061628;28;20466;-84
2022/07/01 10:22:42;;;;;;;2.60;2.50;;;16.60;89.50;;;15.24;81.25;98193.00;5064627;28;20458;-83
2022/07/01 10:25:41;;;;;;;2.70;2.50;;;16.30;90.60;;;15.32;80.98;98196.38;5066281;28;21100;-85
2022/07/01 10:28:27;;;;;;;2.50;2.30;;;16.30;90.60;;;15.37;81.15;98193.75;5062668;28;21304;-82
2022/07/01 10:30:59;;;;;;;3.00;2.60;;;16.40;91.10;;;15.49;79.89;98213.59;5062200;28;20479;-84
2022/07/01 10:33:46;;;;;;;2.33;2.23;;;16.50;90.10;;;15.21;81.00;98208.97;5066906;28;20480;-84
2022/07/01 10:36:19;;;;;;;2.40;2.23;;;16.30;90.60;;;14.97;81.05;98209.84;5051101;28;20857;-82
2022/07/01 10:39:22;;;;;;;2.60;2.40;;;16.10;90.70;;;15.27;82.21;98211.56;5061155;28;20464;-85